Time;durP1;ratioP1;P1;durP2;ratioP2;P2;SDS_P1;SDS_P2;PMS_P1;PMS_P2;Temp;Humidity;BMP_temperature;BMP_pressure;BME280_temperature;BME280_humidity;BME280_pressure;Samples;Min_cycle;Max_cycle;Signal;HPM_P1;HPM_P2
2023/09/17 00:01:10;;;;;;;6.47;5.20;;;20.00;99.90;;;;;;4945490;28;20196;-38
2023/09/17 00:03:36;;;;;;;7.55;4.82;;;20.00;99.90;;;;;;4967698;28;20236;-36
2023/09/17 00:06:03;;;;;;;6.97;5.10;;;19.90;99.90;;;;;;4955267;28;20224;-35
2023/09/17 00:08:29;;;;;;;6.70;5.65;;;19.90;99.90;;;;;;4968041;28;20200;-38
2023/09/17 00:10:55;;;;;;;5.90;5.40;;;19.80;99.90;;;;;;4954551;28;20204;-37
2023/09/17 00:13:20;;;;;;;5.97;5.07;;;19.80;99.90;;;;;;4955075;28;20653;-34
2023/09/17 00:15:46;;;;;;;8.10;5.25;;;19.70;99.90;;;;;;4954699;28;20193;-37
2023/09/17 00:18:13;;;;;;;5.97;5.28;;;19.70;99.90;;;;;;4955474;28;20216;-35
2023/09/17 00:20:39;;;;;;;6.22;5.60;;;19.60;99.90;;;;;;4970951;28;20192;-36
2023/09/17 00:23:04;;;;;;;5.93;5.32;;;19.60;99.90;;;;;;4954372;28;20192;-33
2023/09/17 00:25:30;;;;;;;7.60;5.50;;;19.60;99.90;;;;;;4959348;28;20299;-36
2023/09/17 00:27:56;;;;;;;7.13;6.43;;;19.60;99.90;;;;;;4951480;28;20199;-38
2023/09/17 00:30:22;;;;;;;6.20;5.60;;;19.50;99.90;;;;;;4974644;28;20183;-37
2023/09/17 00:32:48;;;;;;;6.28;5.65;;;19.50;99.90;;;;;;4963556;28;20185;-35
2023/09/17 00:35:14;;;;;;;5.95;5.30;;;19.40;99.90;;;;;;4953450;28;20213;-36
2023/09/17 00:37:41;;;;;;;6.22;5.63;;;19.40;99.90;;;;;;4954519;28;20234;-35
2023/09/17 00:40:10;;;;;;;6.78;5.43;;;19.30;99.90;;;;;;4970852;28;20232;-37
2023/09/17 00:42:37;;;;;;;6.25;5.60;;;19.30;99.90;;;;;;4953349;28;20184;-35
2023/09/17 00:45:04;;;;;;;6.40;5.05;;;19.30;99.90;;;;;;4947942;28;20247;-36
2023/09/17 00:47:31;;;;;;;5.95;5.25;;;19.30;99.90;;;;;;4970597;28;20192;-33
2023/09/17 00:49:59;;;;;;;5.45;4.97;;;19.20;99.90;;;;;;4949412;29;20216;-36
2023/09/17 00:52:26;;;;;;;5.07;4.68;;;19.10;99.90;;;;;;4950895;28;20703;-39
2023/09/17 00:54:54;;;;;;;6.28;5.68;;;19.10;99.90;;;;;;4968402;28;20188;-37
2023/09/17 00:57:21;;;;;;;6.10;5.50;;;19.10;99.90;;;;;;4951182;29;20186;-35
2023/09/17 00:59:48;;;;;;;5.75;5.25;;;19.10;99.90;;;;;;4961334;28;20187;-31
2023/09/17 01:02:18;;;;;;;6.05;5.45;;;19.00;99.90;;;;;;4961900;28;20189;-36
2023/09/17 01:04:49;;;;;;;5.82;4.97;;;18.90;99.90;;;;;;4967210;28;20252;-39
2023/09/17 01:07:22;;;;;;;6.43;5.30;;;18.90;99.90;;;;;;4950028;28;20184;-33
2023/09/17 01:09:49;;;;;;;5.53;5.03;;;18.90;99.90;;;;;;4961076;28;20276;-33
2023/09/17 01:12:16;;;;;;;5.40;4.90;;;18.90;99.90;;;;;;4946778;29;20232;-37
2023/09/17 01:14:42;;;;;;;5.70;5.20;;;18.90;99.90;;;;;;4952122;28;20192;-32
2023/09/17 01:17:09;;;;;;;5.82;5.32;;;18.80;99.90;;;;;;4966343;28;20189;-36
2023/09/17 01:19:36;;;;;;;6.03;5.43;;;18.80;99.90;;;;;;4973246;28;20181;-36
2023/09/17 01:22:20;;;;;;;5.45;4.97;;;18.70;99.90;;;;;;4948277;29;20430;-37
2023/09/17 01:25:11;;;;;;;5.78;5.28;;;18.60;99.90;;;;;;4965196;28;20180;-37
2023/09/17 01:27:39;;;;;;;6.35;5.75;;;18.50;99.90;;;;;;4961716;28;20200;-39
2023/09/17 01:30:15;;;;;;;6.65;6.13;;;18.40;99.90;;;;;;4969061;28;20181;-37
2023/09/17 01:32:42;;;;;;;6.72;4.80;;;18.40;99.90;;;;;;4953217;28;20212;-39
2023/09/17 01:35:11;;;;;;;5.93;5.32;;;18.40;99.90;;;;;;4951297;28;20236;-39
2023/09/17 01:37:41;;;;;;;7.00;6.30;;;18.40;99.90;;;;;;4976437;28;20200;-36
2023/09/17 01:40:10;;;;;;;6.25;5.57;;;18.40;99.90;;;;;;4974135;28;20188;-38
2023/09/17 01:42:40;;;;;;;7.32;6.25;;;18.40;99.90;;;;;;4964758;28;20220;-38
2023/09/17 01:45:09;;;;;;;8.65;6.22;;;18.40;99.90;;;;;;4972898;23;20250;-28
2023/09/17 01:47:35;;;;;;;6.65;5.95;;;18.40;99.90;;;;;;4970416;28;20225;-29
2023/09/17 01:50:04;;;;;;;6.97;5.40;;;18.40;99.90;;;;;;4941373;28;20181;-29
2023/09/17 01:52:34;;;;;;;6.97;5.80;;;18.40;99.90;;;;;;4937371;28;20292;-29
2023/09/17 01:55:03;;;;;;;6.30;5.70;;;18.40;99.90;;;;;;4937919;28;20184;-29
2023/09/17 01:57:31;;;;;;;6.47;5.88;;;18.50;99.90;;;;;;4942302;29;20182;-29
2023/09/17 01:59:57;;;;;;;7.07;6.15;;;18.50;99.90;;;;;;4935880;29;20182;-29
2023/09/17 02:02:23;;;;;;;7.18;5.85;;;18.40;99.90;;;;;;4936498;29;20186;-30
2023/09/17 02:04:49;;;;;;;6.38;5.78;;;18.40;99.90;;;;;;4918994;29;20249;-28
2023/09/17 02:07:16;;;;;;;7.05;6.20;;;18.40;99.90;;;;;;4942524;29;20273;-29
2023/09/17 02:09:42;;;;;;;7.78;6.38;;;18.40;99.90;;;;;;4934805;29;20201;-28
2023/09/17 02:12:08;;;;;;;6.13;5.53;;;18.40;99.90;;;;;;4929446;29;20236;-29
2023/09/17 02:14:34;;;;;;;7.22;5.75;;;18.40;99.90;;;;;;4939221;29;20178;-30
2023/09/17 02:17:00;;;;;;;6.75;6.05;;;18.40;99.90;;;;;;4935760;29;20208;-28
2023/09/17 02:19:27;;;;;;;6.65;6.05;;;18.40;99.90;;;;;;4927545;29;20181;-29
2023/09/17 02:21:53;;;;;;;7.93;6.20;;;18.40;99.90;;;;;;4950935;28;20204;-29
2023/09/17 02:24:19;;;;;;;6.40;5.72;;;18.40;99.90;;;;;;4917820;29;20186;-29
2023/09/17 02:26:46;;;;;;;8.43;6.32;;;18.40;99.90;;;;;;4925342;29;20216;-30
2023/09/17 02:29:13;;;;;;;6.28;5.68;;;18.30;99.90;;;;;;4941678;29;20244;-29
2023/09/17 02:31:39;;;;;;;6.45;5.88;;;18.30;99.90;;;;;;4925290;29;20222;-29
2023/09/17 02:34:05;;;;;;;6.38;5.78;;;18.30;99.90;;;;;;4932549;29;20194;-29
2023/09/17 02:36:34;;;;;;;6.32;5.60;;;18.30;99.90;;;;;;4941472;28;20194;-29
2023/09/17 02:39:00;;;;;;;6.20;5.70;;;18.20;99.90;;;;;;4924921;29;20242;-28
2023/09/17 02:41:26;;;;;;;6.70;6.10;;;18.20;99.90;;;;;;4926106;29;20329;-29
2023/09/17 02:43:52;;;;;;;7.13;5.80;;;18.20;99.90;;;;;;4922442;29;20197;-29
2023/09/17 02:46:18;;;;;;;6.45;5.82;;;18.20;99.90;;;;;;4925683;29;20394;-29
2023/09/17 02:48:44;;;;;;;9.20;6.70;;;18.20;99.90;;;;;;4914938;29;20201;-29
2023/09/17 02:51:10;;;;;;;10.38;6.90;;;18.20;99.90;;;;;;4917786;29;20209;-28
2023/09/17 02:53:37;;;;;;;7.22;6.40;;;18.20;99.90;;;;;;4914203;29;20182;-29
2023/09/17 02:56:04;;;;;;;7.47;6.00;;;18.10;99.90;;;;;;4913610;29;20309;-29
2023/09/17 02:58:30;;;;;;;6.38;5.72;;;18.10;99.90;;;;;;4917409;29;20182;-29
2023/09/17 03:00:56;;;;;;;6.03;5.53;;;18.00;99.90;;;;;;4917085;29;20193;-29
2023/09/17 03:03:24;;;;;;;5.97;5.47;;;17.90;99.90;;;;;;4932339;29;20200;-29
2023/09/17 03:05:51;;;;;;;7.18;6.47;;;17.90;99.90;;;;;;4914468;29;20202;-29
2023/09/17 03:08:20;;;;;;;6.57;5.90;;;17.90;99.90;;;;;;4929934;29;20186;-29
2023/09/17 03:10:59;;;;;;;6.20;5.60;;;17.70;99.90;;;;;;4915382;29;20202;-29
2023/09/17 03:13:26;;;;;;;6.90;6.30;;;17.60;99.90;;;;;;4915240;29;20182;-29
2023/09/17 03:15:58;;;;;;;7.07;6.32;;;17.60;99.90;;;;;;4918200;29;20207;-30
2023/09/17 03:18:24;;;;;;;6.22;5.63;;;17.60;99.90;;;;;;4932485;29;20178;-29
2023/09/17 03:20:52;;;;;;;7.97;6.18;;;17.60;99.90;;;;;;4912924;29;20197;-30
2023/09/17 03:23:18;;;;;;;6.28;5.68;;;17.70;99.90;;;;;;4917123;29;20325;-28
2023/09/17 03:25:44;;;;;;;7.57;6.43;;;17.60;99.90;;;;;;4923808;29;20284;-28
2023/09/17 03:28:11;;;;;;;6.80;6.10;;;17.60;99.90;;;;;;4931518;29;20178;-28
2023/09/17 03:30:38;;;;;;;7.07;6.38;;;17.60;99.90;;;;;;4916553;29;20232;-29
2023/09/17 03:33:08;;;;;;;6.57;5.60;;;17.60;99.90;;;;;;4922117;29;20257;-28
2023/09/17 03:35:41;;;;;;;6.85;5.70;;;17.60;99.90;;;;;;4916196;29;20330;-29
2023/09/17 03:38:07;;;;;;;8.38;5.80;;;17.60;99.90;;;;;;4914522;29;20178;-29
2023/09/17 03:40:34;;;;;;;8.27;6.90;;;17.60;99.90;;;;;;4928847;29;20189;-29
2023/09/17 03:43:00;;;;;;;7.90;7.20;;;17.60;99.90;;;;;;4916664;29;20214;-28
2023/09/17 03:45:26;;;;;;;8.52;7.22;;;17.50;99.90;;;;;;4931172;29;20221;-29
2023/09/17 03:47:53;;;;;;;8.80;6.30;;;17.50;99.90;;;;;;4915078;29;20269;-29
2023/09/17 03:50:18;;;;;;;8.48;6.93;;;17.50;99.90;;;;;;4924407;29;20266;-29
2023/09/17 03:52:49;;;;;;;7.78;7.07;;;17.50;99.90;;;;;;4916692;29;20214;-28
2023/09/17 03:55:15;;;;;;;7.22;6.53;;;17.50;99.90;;;;;;4947781;28;20285;-29
2023/09/17 03:57:41;;;;;;;9.60;6.97;;;17.50;99.90;;;;;;4917239;29;20245;-29
2023/09/17 04:00:14;;;;;;;8.40;6.78;;;17.50;99.90;;;;;;4931524;29;20178;-29
2023/09/17 04:02:41;;;;;;;6.90;6.28;;;17.50;99.90;;;;;;4911677;29;20187;-30
2023/09/17 04:05:13;;;;;;;7.85;6.50;;;17.50;99.90;;;;;;4931659;29;20277;-28
2023/09/17 04:07:41;;;;;;;7.18;6.47;;;17.40;99.90;;;;;;4916747;29;20185;-29
2023/09/17 04:10:09;;;;;;;7.60;6.80;;;17.40;99.90;;;;;;4915992;29;20232;-29
2023/09/17 04:12:36;;;;;;;7.32;6.63;;;17.50;99.90;;;;;;4931369;29;20206;-29
2023/09/17 04:15:08;;;;;;;9.50;6.97;;;17.50;99.90;;;;;;4915323;29;20221;-30
2023/09/17 04:17:33;;;;;;;7.30;6.60;;;17.50;99.90;;;;;;4929705;29;20245;-29
2023/09/17 04:19:59;;;;;;;7.45;6.75;;;17.60;99.90;;;;;;4915908;29;20186;-29
2023/09/17 04:22:25;;;;;;;6.93;6.25;;;17.60;99.90;;;;;;4915437;29;20200;-29
2023/09/17 04:24:51;;;;;;;7.28;6.57;;;17.60;99.90;;;;;;4910079;29;20269;-29
2023/09/17 04:27:18;;;;;;;8.43;6.75;;;17.60;99.90;;;;;;4914798;29;20216;-29
2023/09/17 04:29:45;;;;;;;7.60;6.75;;;17.60;99.90;;;;;;4926285;29;20679;-29
2023/09/17 04:32:12;;;;;;;6.78;6.07;;;17.60;99.90;;;;;;4920680;29;20197;-29
2023/09/17 04:34:38;;;;;;;6.97;6.32;;;17.60;99.90;;;;;;4915601;29;20182;-29
2023/09/17 04:37:04;;;;;;;7.55;6.35;;;17.60;99.90;;;;;;4915375;29;20217;-29
2023/09/17 04:39:30;;;;;;;7.55;6.85;;;17.50;99.90;;;;;;4915850;29;20174;-30
2023/09/17 04:41:58;;;;;;;8.15;6.38;;;17.50;99.90;;;;;;4916098;29;20196;-28
2023/09/17 04:44:23;;;;;;;7.22;6.53;;;17.50;99.90;;;;;;4932589;29;20186;-29
2023/09/17 04:46:49;;;;;;;7.47;6.18;;;17.50;99.90;;;;;;4934278;29;20225;-29
2023/09/17 04:49:15;;;;;;;7.03;6.32;;;17.50;99.90;;;;;;4918053;29;20213;-30
2023/09/17 04:51:41;;;;;;;6.60;5.82;;;17.50;99.90;;;;;;4934123;29;20210;-29
2023/09/17 04:54:07;;;;;;;7.10;6.05;;;17.50;99.90;;;;;;4917952;29;20170;-29
2023/09/17 04:56:35;;;;;;;6.88;6.18;;;17.50;99.90;;;;;;4933590;29;20197;-30
2023/09/17 04:59:01;;;;;;;7.78;7.07;;;17.50;99.90;;;;;;4919133;29;20189;-29
2023/09/17 05:01:27;;;;;;;7.70;6.90;;;17.50;99.90;;;;;;4935170;29;20189;-29
2023/09/17 05:03:54;;;;;;;6.93;6.32;;;17.50;99.90;;;;;;4933975;29;20273;-29
2023/09/17 05:06:20;;;;;;;6.78;6.18;;;17.50;99.90;;;;;;4933078;29;20205;-29
2023/09/17 05:08:46;;;;;;;9.35;6.85;;;17.40;99.90;;;;;;4934129;29;20241;-29
2023/09/17 05:11:13;;;;;;;7.45;6.68;;;17.40;99.90;;;;;;4934104;29;20692;-28
2023/09/17 05:13:39;;;;;;;7.47;6.22;;;17.40;99.90;;;;;;4919194;29;20186;-29
2023/09/17 05:16:06;;;;;;;6.90;6.30;;;17.40;99.90;;;;;;4918461;29;20206;-29
2023/09/17 05:18:32;;;;;;;8.07;7.28;;;17.40;99.90;;;;;;4934840;29;20178;-29
2023/09/17 05:20:58;;;;;;;8.07;6.30;;;17.40;99.90;;;;;;4934633;29;20193;-30
2023/09/17 05:23:24;;;;;;;7.40;6.72;;;17.40;99.90;;;;;;4918528;29;20636;-29
2023/09/17 05:25:56;;;;;;;7.63;6.60;;;17.40;99.90;;;;;;4934639;29;20274;-29
2023/09/17 05:28:25;;;;;;;7.88;6.85;;;17.40;99.90;;;;;;4918477;29;20711;-29
2023/09/17 05:30:53;;;;;;;8.65;7.75;;;17.40;99.90;;;;;;4931953;29;20375;-29
2023/09/17 05:33:19;;;;;;;8.55;7.75;;;17.40;99.90;;;;;;4932785;29;20182;-29
2023/09/17 05:35:45;;;;;;;7.97;7.18;;;17.50;99.90;;;;;;4916385;29;20218;-29
2023/09/17 05:38:12;;;;;;;6.82;6.20;;;17.50;99.90;;;;;;4918809;29;20642;-30
2023/09/17 05:40:41;;;;;;;8.75;7.53;;;17.50;99.90;;;;;;4919983;29;20237;-29
2023/09/17 05:43:10;;;;;;;7.25;6.50;;;17.50;99.90;;;;;;4923576;29;20191;-30
2023/09/17 05:45:37;;;;;;;7.82;6.97;;;17.50;99.90;;;;;;4925938;29;20228;-28
2023/09/17 05:48:04;;;;;;;7.38;6.68;;;17.50;99.90;;;;;;4920744;29;20187;-28
2023/09/17 05:50:32;;;;;;;8.55;7.47;;;17.50;99.90;;;;;;4934161;29;20211;-29
2023/09/17 05:52:58;;;;;;;7.70;6.90;;;17.50;99.90;;;;;;4917393;29;20182;-29
2023/09/17 05:55:24;;;;;;;7.68;6.97;;;17.60;99.90;;;;;;4933468;29;20202;-29
2023/09/17 05:57:51;;;;;;;8.35;7.53;;;17.60;99.90;;;;;;4913398;29;20179;-29
2023/09/17 06:00:17;;;;;;;8.45;7.20;;;17.60;99.90;;;;;;4918646;29;20188;-29
2023/09/17 06:02:47;;;;;;;7.88;7.18;;;17.60;99.90;;;;;;4932734;29;20281;-29
2023/09/17 06:05:16;;;;;;;8.32;6.80;;;17.70;99.90;;;;;;4919237;29;20185;-29
2023/09/17 06:07:42;;;;;;;8.20;6.90;;;17.70;99.90;;;;;;4918140;29;20197;-29
2023/09/17 06:10:09;;;;;;;8.05;6.97;;;17.70;99.90;;;;;;4918001;29;20190;-29
2023/09/17 06:12:35;;;;;;;8.27;6.93;;;17.80;99.90;;;;;;4935123;29;20218;-31
2023/09/17 06:15:02;;;;;;;8.25;7.45;;;17.90;99.90;;;;;;4917815;29;20241;-30
2023/09/17 06:17:28;;;;;;;6.82;6.22;;;18.00;99.90;;;;;;4918004;29;20197;-29
2023/09/17 06:19:54;;;;;;;8.02;6.80;;;18.10;99.90;;;;;;4933812;29;20221;-29
2023/09/17 06:22:20;;;;;;;7.28;6.57;;;18.20;99.90;;;;;;4935093;29;20186;-28
2023/09/17 06:24:46;;;;;;;9.52;6.90;;;18.30;99.90;;;;;;4917367;29;20182;-29
2023/09/17 06:27:12;;;;;;;8.27;7.05;;;18.30;99.90;;;;;;4916973;29;20212;-28
2023/09/17 06:29:38;;;;;;;8.45;7.63;;;18.40;99.90;;;;;;4932901;29;20281;-29
2023/09/17 06:32:04;;;;;;;7.70;6.95;;;18.50;99.90;;;;;;4917022;29;20285;-30
2023/09/17 06:34:30;;;;;;;8.40;7.03;;;18.50;99.90;;;;;;4913352;29;20189;-29
2023/09/17 06:36:57;;;;;;;7.88;7.18;;;18.50;99.90;;;;;;4932837;29;20194;-29
2023/09/17 06:39:24;;;;;;;7.47;6.78;;;18.50;99.90;;;;;;4932893;29;20189;-29
2023/09/17 06:41:58;;;;;;;7.95;7.22;;;18.50;99.90;;;;;;4930259;29;20209;-29
2023/09/17 06:44:25;;;;;;;7.47;6.60;;;18.60;99.90;;;;;;4918826;29;20222;-29
2023/09/17 06:46:51;;;;;;;8.57;7.10;;;18.70;99.90;;;;;;4915326;29;20218;-28
2023/09/17 06:49:18;;;;;;;7.72;6.90;;;18.80;99.90;;;;;;4917301;29;20246;-28
2023/09/17 06:51:44;;;;;;;8.10;7.30;;;18.80;99.90;;;;;;4933028;29;20221;-29
2023/09/17 06:54:10;;;;;;;7.88;7.18;;;18.90;99.90;;;;;;4916643;29;20223;-29
2023/09/17 06:56:35;;;;;;;10.90;8.38;;;19.00;99.90;;;;;;4917324;29;20202;-28
2023/09/17 06:59:02;;;;;;;8.52;7.15;;;19.00;99.90;;;;;;4915670;29;20189;-28
2023/09/17 07:01:29;;;;;;;7.80;7.10;;;19.10;99.90;;;;;;4915034;29;20186;-30
2023/09/17 07:03:55;;;;;;;7.95;7.15;;;19.20;99.90;;;;;;4917544;29;20193;-30
2023/09/17 07:06:21;;;;;;;7.47;6.78;;;19.20;99.90;;;;;;4929310;29;20202;-28
2023/09/17 07:08:47;;;;;;;7.88;6.80;;;19.30;99.90;;;;;;4930735;29;20190;-28
2023/09/17 07:11:14;;;;;;;7.75;7.05;;;19.30;99.90;;;;;;4918519;29;20296;-28
2023/09/17 07:13:40;;;;;;;8.10;6.97;;;19.40;99.90;;;;;;4915570;29;20262;-30
2023/09/17 07:16:06;;;;;;;10.35;7.35;;;19.50;99.90;;;;;;4916777;29;20202;-30
2023/09/17 07:18:32;;;;;;;9.77;7.28;;;19.60;99.90;;;;;;4932218;29;20186;-29
2023/09/17 07:21:01;;;;;;;7.88;7.15;;;19.70;99.90;;;;;;4910462;29;20192;-30
2023/09/17 07:23:27;;;;;;;8.00;6.78;;;19.70;99.90;;;;;;4931844;29;20187;-28
2023/09/17 07:25:54;;;;;;;7.32;6.63;;;19.80;99.90;;;;;;4946192;28;20213;-32
2023/09/17 07:28:20;;;;;;;7.47;6.78;;;19.90;99.90;;;;;;4931421;29;20237;-29
2023/09/17 07:30:47;;;;;;;7.32;6.63;;;20.00;99.90;;;;;;4932056;29;20643;-30
2023/09/17 07:33:17;;;;;;;6.72;6.13;;;20.20;99.90;;;;;;4915596;29;20194;-30
2023/09/17 07:35:48;;;;;;;6.40;5.80;;;20.30;99.90;;;;;;4934541;29;20206;-30
2023/09/17 07:38:18;;;;;;;6.93;5.63;;;20.50;99.90;;;;;;4931035;29;20178;-30
2023/09/17 07:40:44;;;;;;;7.68;5.45;;;20.50;99.90;;;;;;4914215;29;20276;-29
2023/09/17 07:43:11;;;;;;;6.07;5.57;;;20.60;99.90;;;;;;4912851;29;20210;-30
2023/09/17 07:45:38;;;;;;;6.10;5.55;;;20.70;99.90;;;;;;4932218;29;20273;-30
2023/09/17 07:48:05;;;;;;;6.15;5.55;;;20.80;99.90;;;;;;4932087;29;20324;-29
2023/09/17 07:50:33;;;;;;;5.88;5.13;;;21.00;99.90;;;;;;4921933;29;20234;-31
2023/09/17 07:53:00;;;;;;;4.95;4.55;;;21.20;99.90;;;;;;4909986;29;20744;-30
2023/09/17 07:55:26;;;;;;;6.80;4.93;;;21.30;99.90;;;;;;4917584;29;20214;-30
2023/09/17 07:57:52;;;;;;;5.15;4.65;;;21.50;99.90;;;;;;4931519;29;20186;-30
2023/09/17 08:00:20;;;;;;;5.65;4.50;;;21.70;99.90;;;;;;4930857;29;20182;-30
2023/09/17 08:02:46;;;;;;;4.95;4.18;;;21.80;99.90;;;;;;4926740;29;20268;-29
2023/09/17 08:05:14;;;;;;;6.40;4.85;;;21.90;99.90;;;;;;4929117;29;20265;-30
2023/09/17 08:07:44;;;;;;;4.97;4.47;;;21.90;99.90;;;;;;4927673;29;20260;-30
2023/09/17 08:10:15;;;;;;;4.82;4.30;;;22.00;99.90;;;;;;4912290;29;20196;-30
2023/09/17 08:12:41;;;;;;;5.35;3.95;;;22.00;99.90;;;;;;4930037;29;20213;-30
2023/09/17 08:15:07;;;;;;;4.95;4.13;;;22.20;99.90;;;;;;4930083;29;20229;-30
2023/09/17 08:17:33;;;;;;;6.05;4.35;;;22.20;99.90;;;;;;4917124;29;20661;-29
2023/09/17 08:20:03;;;;;;;6.03;3.95;;;22.30;99.90;;;;;;4929629;29;20232;-29
2023/09/17 08:22:29;;;;;;;4.88;4.18;;;22.40;99.90;;;;;;4918415;29;20185;-30
2023/09/17 08:24:55;;;;;;;5.32;4.47;;;22.40;99.90;;;;;;4930280;29;20182;-30
2023/09/17 08:27:26;;;;;;;5.75;4.35;;;22.50;99.90;;;;;;4934693;29;20304;-30
2023/09/17 08:29:53;;;;;;;5.63;4.60;;;22.60;99.90;;;;;;4916135;29;20206;-30
2023/09/17 08:32:20;;;;;;;6.72;4.97;;;22.80;99.90;;;;;;4938747;29;20201;-30
2023/09/17 08:34:46;;;;;;;6.18;4.57;;;22.90;99.90;;;;;;4913822;29;20191;-30
2023/09/17 08:37:12;;;;;;;6.10;4.20;;;23.20;99.90;;;;;;4929384;29;20205;-30
2023/09/17 08:39:37;;;;;;;5.53;4.80;;;23.20;99.90;;;;;;4913528;29;20189;-29
2023/09/17 08:42:04;;;;;;;7.05;4.97;;;23.30;99.90;;;;;;4914781;29;20190;-30
2023/09/17 08:44:33;;;;;;;6.70;4.40;;;23.30;99.90;;;;;;4927402;29;20217;-30
2023/09/17 08:47:03;;;;;;;5.32;4.70;;;23.30;99.90;;;;;;4941517;28;20232;-30
2023/09/17 08:49:30;;;;;;;5.88;4.20;;;23.30;99.90;;;;;;4929220;29;20318;-30
2023/09/17 08:52:04;;;;;;;4.88;4.38;;;23.40;99.90;;;;;;4926696;29;20209;-30
2023/09/17 08:54:46;;;;;;;5.68;4.07;;;23.20;99.90;;;;;;4928930;29;20178;-30
2023/09/17 08:57:14;;;;;;;5.18;4.22;;;23.40;99.90;;;;;;4919582;29;20321;-30
2023/09/17 08:59:52;;;;;;;4.88;4.15;;;23.60;99.90;;;;;;4930881;29;20187;-31
2023/09/17 09:02:31;;;;;;;6.15;4.13;;;23.90;99.90;;;;;;4944011;28;20200;-30
2023/09/17 09:05:00;;;;;;;5.88;3.70;;;24.00;99.90;;;;;;4930984;29;20181;-31
2023/09/17 09:07:28;;;;;;;4.10;3.72;;;24.20;99.90;;;;;;4930721;29;20182;-30
2023/09/17 09:09:57;;;;;;;4.78;3.70;;;24.50;99.90;;;;;;4913829;29;20205;-31
2023/09/17 09:12:26;;;;;;;5.70;4.05;;;24.60;99.90;;;;;;4914597;29;20214;-30
2023/09/17 09:14:54;;;;;;;5.82;3.78;;;24.80;99.90;;;;;;4943719;28;20274;-30
2023/09/17 09:17:22;;;;;;;3.97;3.67;;;24.90;99.90;;;;;;4929277;29;20206;-30
2023/09/17 09:19:48;;;;;;;4.00;3.60;;;25.00;99.90;;;;;;4931051;29;20241;-30
2023/09/17 09:22:14;;;;;;;6.20;3.78;;;25.20;99.90;;;;;;4922278;29;20201;-30
2023/09/17 09:24:47;;;;;;;4.47;3.78;;;25.30;99.90;;;;;;4916512;29;20194;-30
2023/09/17 09:27:38;;;;;;;7.85;4.05;;;25.40;99.90;;;;;;4942443;28;20206;-30
2023/09/17 09:30:22;;;;;;;5.75;3.15;;;25.50;99.90;;;;;;4936598;28;20281;-30
2023/09/17 09:32:58;;;;;;;6.05;3.65;;;25.60;99.90;;;;;;4967497;28;20198;-31
2023/09/17 09:35:27;;;;;;;3.53;3.20;;;25.70;99.90;;;;;;4940856;28;20237;-30
2023/09/17 09:38:11;;;;;;;5.93;3.47;;;25.80;99.90;;;;;;4960038;28;20193;-30
2023/09/17 09:40:48;;;;;;;4.45;3.28;;;26.00;99.90;;;;;;4955809;28;20209;-31
2023/09/17 09:43:29;;;;;;;5.80;3.30;;;26.10;99.90;;;;;;4941344;29;20197;-30
2023/09/17 09:46:01;;;;;;;5.60;3.17;;;26.20;99.90;;;;;;4933639;29;20225;-31
2023/09/17 09:48:29;;;;;;;4.63;3.05;;;26.20;99.90;;;;;;4938148;29;20241;-31
2023/09/17 09:50:58;;;;;;;5.68;3.03;;;26.40;99.90;;;;;;4917748;29;20270;-31
2023/09/17 09:53:28;;;;;;;5.20;3.72;;;26.50;99.90;;;;;;4932129;29;20186;-30
2023/09/17 09:55:57;;;;;;;5.75;3.65;;;26.50;99.90;;;;;;4932410;29;20205;-30
2023/09/17 09:58:26;;;;;;;5.80;3.42;;;26.60;99.90;;;;;;4932153;29;20655;-30
2023/09/17 10:00:54;;;;;;;4.45;3.17;;;26.70;99.90;;;;;;4933304;29;20186;-30
2023/09/17 10:03:21;;;;;;;5.18;3.20;;;26.70;99.90;;;;;;4932424;29;20177;-31
2023/09/17 10:05:50;;;;;;;4.03;2.92;;;26.70;99.90;;;;;;4928906;29;20194;-31
2023/09/17 10:08:21;;;;;;;5.63;2.78;;;26.80;99.90;;;;;;4934471;29;20182;-31
2023/09/17 10:11:07;;;;;;;4.05;2.85;;;26.90;99.90;;;;;;4949454;29;20193;-30
2023/09/17 10:13:49;;;;;;;6.03;3.17;;;27.00;99.90;;;;;;4942635;28;20190;-31
2023/09/17 10:16:24;;;;;;;3.55;3.05;;;27.20;99.90;;;;;;4944270;29;20288;-30
2023/09/17 10:18:58;;;;;;;3.97;2.70;;;27.40;99.90;;;;;;4927108;29;20193;-29
2023/09/17 10:21:43;;;;;;;6.43;2.75;;;27.40;99.90;;;;;;4930863;29;20562;-29
2023/09/17 10:24:17;;;;;;;6.55;2.60;;;27.60;99.90;;;;;;4928382;29;20182;-30
2023/09/17 10:26:46;;;;;;;3.47;2.28;;;27.60;99.90;;;;;;4932244;29;20198;-30
2023/09/17 10:29:18;;;;;;;4.35;2.28;;;27.70;99.90;;;;;;4915947;29;20194;-30
2023/09/17 10:31:50;;;;;;;4.05;2.65;;;27.80;99.90;;;;;;4930871;29;20236;-29
2023/09/17 10:34:20;;;;;;;3.75;2.50;;;28.00;99.90;;;;;;4913021;29;20225;-30
2023/09/17 10:36:49;;;;;;;4.10;2.33;;;28.10;99.90;;;;;;4911582;29;20213;-30
2023/09/17 10:39:17;;;;;;;4.07;2.35;;;28.00;99.90;;;;;;4935858;29;20722;-30
2023/09/17 10:41:48;;;;;;;6.25;2.30;;;28.10;99.90;;;;;;4928972;29;20217;-30
2023/09/17 10:44:23;;;;;;;2.90;2.28;;;28.30;99.90;;;;;;4917105;29;20189;-29
2023/09/17 10:46:53;;;;;;;4.55;2.50;;;28.40;99.90;;;;;;4933055;29;20280;-30
2023/09/17 10:49:25;;;;;;;7.60;2.58;;;28.50;99.90;;;;;;4919627;29;20252;-30
2023/09/17 10:51:53;;;;;;;4.47;2.40;;;28.70;99.90;;;;;;4914470;29;20203;-30
2023/09/17 10:54:24;;;;;;;3.17;2.50;;;28.70;99.90;;;;;;4914092;29;20218;-30
2023/09/17 10:56:51;;;;;;;4.28;2.30;;;28.70;99.90;;;;;;4938464;29;20209;-29
2023/09/17 10:59:21;;;;;;;3.40;2.30;;;28.80;99.90;;;;;;4951488;28;20216;-30
2023/09/17 11:01:49;;;;;;;4.53;2.58;;;28.90;99.90;;;;;;4948257;29;20200;-30
2023/09/17 11:04:20;;;;;;;2.55;2.08;;;29.00;99.90;;;;;;4953203;28;20210;-31
2023/09/17 11:06:48;;;;;;;3.95;2.60;;;29.20;99.90;;;;;;4921755;29;20226;-30
2023/09/17 11:09:15;;;;;;;4.63;2.40;;;29.30;99.90;;;;;;4935856;29;20278;-30
2023/09/17 11:11:45;;;;;;;3.58;2.50;;;29.40;99.90;;;;;;4943998;29;20217;-31
2023/09/17 11:14:18;;;;;;;4.57;2.60;;;29.40;99.90;;;;;;4945075;29;20221;-30
2023/09/17 11:16:50;;;;;;;4.28;2.60;;;29.60;99.90;;;;;;4944008;28;20241;-30
2023/09/17 11:19:24;;;;;;;3.15;2.30;;;29.70;99.90;;;;;;4916977;29;20187;-30
2023/09/17 11:22:12;;;;;;;3.35;2.47;;;29.90;99.90;;;;;;4946444;29;20185;-30
2023/09/17 11:24:40;;;;;;;4.30;2.65;;;29.90;99.90;;;;;;4932901;29;20185;-31
2023/09/17 11:27:12;;;;;;;4.35;2.72;;;29.90;99.90;;;;;;4913154;29;20210;-30
2023/09/17 11:29:42;;;;;;;4.55;2.47;;;29.80;99.90;;;;;;4904872;29;20229;-31
2023/09/17 11:32:13;;;;;;;4.70;2.28;;;29.90;99.90;;;;;;4935695;28;20209;-30
2023/09/17 11:34:44;;;;;;;3.58;2.63;;;30.00;99.90;;;;;;4915134;29;20182;-31
2023/09/17 11:37:13;;;;;;;5.45;2.80;;;30.00;99.90;;;;;;4913808;29;20211;-30
2023/09/17 11:39:50;;;;;;;4.15;2.60;;;29.70;99.90;;;;;;4948429;29;20260;-30
2023/09/17 11:42:18;;;;;;;3.38;2.35;;;29.70;99.90;;;;;;4932415;29;20344;-30
2023/09/17 11:44:48;;;;;;;5.47;2.35;;;29.80;99.90;;;;;;4940635;29;20201;-31
2023/09/17 11:47:20;;;;;;;3.33;2.13;;;29.90;99.90;;;;;;4947698;29;20232;-31
2023/09/17 11:49:55;;;;;;;3.70;2.40;;;30.00;99.90;;;;;;4937130;29;20283;-31
2023/09/17 11:52:25;;;;;;;5.18;2.10;;;30.10;99.90;;;;;;4935339;29;20240;-30
2023/09/17 11:55:01;;;;;;;7.38;2.42;;;30.20;99.90;;;;;;4939960;28;20190;-30
2023/09/17 11:57:28;;;;;;;5.72;2.63;;;30.20;99.90;;;;;;4941221;29;20189;-31
2023/09/17 11:59:55;;;;;;;3.67;2.25;;;30.30;99.90;;;;;;4946576;29;20263;-30
2023/09/17 12:02:23;;;;;;;4.32;2.38;;;30.20;99.90;;;;;;4935829;29;20205;-30
2023/09/17 12:04:51;;;;;;;5.10;2.33;;;30.30;99.90;;;;;;4931787;29;20277;-31
2023/09/17 12:07:17;;;;;;;3.83;2.15;;;30.20;99.90;;;;;;4921308;29;20216;-30
2023/09/17 12:12:19;;;;;;;3.65;2.13;;;30.40;99.90;;;;;;4939185;29;20209;-31
2023/09/17 12:14:48;;;;;;;7.80;1.95;;;30.50;99.90;;;;;;4921609;29;20228;-31
2023/09/17 12:17:16;;;;;;;2.40;2.10;;;30.70;99.90;;;;;;4937397;29;20198;-30
2023/09/17 12:19:43;;;;;;;7.35;2.00;;;30.90;99.90;;;;;;4931406;29;20182;-31
2023/09/17 12:22:10;;;;;;;5.25;2.10;;;30.90;99.90;;;;;;4923013;29;20190;-31
2023/09/17 12:24:37;;;;;;;6.43;1.95;;;30.80;99.90;;;;;;4940730;28;20216;-30
2023/09/17 12:29:37;;;;;;;3.00;1.90;;;30.80;99.90;;;;;;4948018;29;20193;-31
2023/09/17 12:32:04;;;;;;;4.07;2.10;;;30.70;99.90;;;;;;4917914;29;20213;-30
2023/09/17 12:34:30;;;;;;;4.10;2.05;;;30.80;99.90;;;;;;4931069;29;20210;-31
2023/09/17 12:36:56;;;;;;;5.07;2.10;;;30.80;99.90;;;;;;4945693;28;20201;-31
2023/09/17 12:39:23;;;;;;;2.97;1.75;;;30.50;99.90;;;;;;4932039;29;20187;-31
2023/09/17 12:41:49;;;;;;;5.32;2.10;;;30.40;99.90;;;;;;4942559;28;20299;-31
2023/09/17 12:44:15;;;;;;;3.45;1.73;;;30.40;99.90;;;;;;4941855;28;20204;-31
2023/09/17 12:46:41;;;;;;;3.38;1.92;;;30.30;99.90;;;;;;4940196;29;20227;-31
2023/09/17 12:49:08;;;;;;;2.58;1.60;;;30.50;99.90;;;;;;4939029;29;20193;-31
2023/09/17 12:51:37;;;;;;;3.38;1.77;;;30.60;99.90;;;;;;4944222;28;20253;-31
2023/09/17 12:54:07;;;;;;;2.20;1.60;;;30.70;99.90;;;;;;4967177;28;20186;-31
2023/09/17 12:56:33;;;;;;;3.38;1.85;;;30.90;99.90;;;;;;4943958;29;20205;-31